»·PEaware :: N155SH KLAS-KSNA

N155SH :: KLAS-KSNA

FLIGHT INFORMATION

Flight Status: Arrived
Operator: Privately registered:
United States
More flights under this callsign
Pilot: Tyler D. (629)
Aircraft: ECLIPSE 500
(EA50)
More flights by this aircraft type
Origin: KLAS McCarran Intl
United States
Destination: KSNA John Wayne-Orange Co
United States
More flights between these airports :: More routes between these airports
Route: BOACH8 WHIGG FEYLA DSNEE4
File this flight plan on PilotEdge
Remarks:
Altitude:
(Current/Filed)
28,000ft
Speed:
(Current/Filed)
350kts
Departed: 05-Jan-21 10:02 PM
Arrived: 05-Jan-21 10:53 PM
Distance/Time
Traveled:
197nm/0:50
Distance/Time
To Go:
Arrived

Flight Plot

Page will automatically refresh every two minutes.

Flight plan parsing failed; only flown route is shown


Map Options




Map Legend


Flown Route
Filed Route
Departure Airport
Arrival Airport
Navaid (VOR, NDB)
Fix

Horizontal Profiles

Position Reports

Time Latitude Longitude Heading Altitude Ground
Speed
05-Jan-21 21:54 36.082660 -115.170027 89 2163ft 0kts
05-Jan-21 21:55 36.082660 -115.170027 89 2163ft 0kts
05-Jan-21 21:56 36.082660 -115.170027 89 2163ft 0kts
05-Jan-21 21:57 36.082660 -115.170027 89 2163ft 0kts
05-Jan-21 21:58 36.082660 -115.170027 89 2163ft 0kts
05-Jan-21 21:59 36.082660 -115.170027 89 2163ft 0kts
05-Jan-21 22:00 36.082893 -115.169362 68 2161ft 14kts
05-Jan-21 22:01 36.085861 -115.166837 29 2148ft 48kts
05-Jan-21 22:02 36.097289 -115.160201 26 2097ft 35kts
05-Jan-21 22:03 36.099857 -115.157578 83 2085ft 5kts
05-Jan-21 22:04 36.099858 -115.157564 85 2085ft 0kts
05-Jan-21 22:05 36.098484 -115.157047 207 2084ft 43kts
05-Jan-21 22:06 36.068512 -115.176541 228 3518ft 150kts
05-Jan-21 22:07 36.018287 -115.205445 212 4947ft 256kts
05-Jan-21 22:08 35.981319 -115.279010 242 6755ft 291kts
05-Jan-21 22:09 35.916252 -115.309224 184 8254ft 284kts
05-Jan-21 22:10 35.853014 -115.315051 175 9637ft 274kts
05-Jan-21 22:11 35.775312 -115.305765 175 11609ft 286kts
05-Jan-21 22:12 35.681225 -115.298890 201 13903ft 299kts
05-Jan-21 22:13 35.623321 -115.368505 231 15914ft 294kts
05-Jan-21 22:14 35.568454 -115.442422 230 17905ft 289kts
05-Jan-21 22:15 35.515650 -115.513246 231 19883ft 274kts
05-Jan-21 22:16 35.465868 -115.580348 231 22014ft 250kts
05-Jan-21 22:17 35.425322 -115.634518 233 24682ft 183kts
05-Jan-21 22:18 35.393846 -115.676822 233 25744ft 175kts
05-Jan-21 22:19 35.358940 -115.723737 233 26515ft 193kts
05-Jan-21 22:20 35.322265 -115.772967 233 27532ft 197kts
05-Jan-21 22:21 35.284511 -115.823770 233 28252ft 215kts
05-Jan-21 22:22 35.239158 -115.884807 232 28254ft 268kts
05-Jan-21 22:23 35.183330 -115.956221 230 28255ft 311kts
05-Jan-21 22:24 35.119950 -116.036290 229 28262ft 341kts
05-Jan-21 22:25 35.052074 -116.122027 229 28277ft 362kts
05-Jan-21 22:26 34.980633 -116.212255 229 28274ft 376kts
05-Jan-21 22:27 34.907186 -116.304624 229 28275ft 384kts
05-Jan-21 22:28 34.831687 -116.399917 229 27600ft 399kts
05-Jan-21 22:29 34.756673 -116.494208 228 26081ft 384kts
05-Jan-21 22:30 34.682129 -116.585046 222 25321ft 379kts
05-Jan-21 22:31 34.599875 -116.666074 220 24452ft 375kts
05-Jan-21 22:32 34.520136 -116.744023 220 22446ft 363kts
05-Jan-21 22:33 34.447885 -116.824954 224 20049ft 345kts
05-Jan-21 22:34 34.380275 -116.903240 224 17655ft 331kts
05-Jan-21 22:35 34.314369 -116.979518 225 15209ft 321kts
05-Jan-21 22:36 34.254811 -117.041516 215 14052ft 250kts
05-Jan-21 22:37 34.187250 -117.091096 213 13026ft 305kts
05-Jan-21 22:38 34.109646 -117.135516 206 12717ft 309kts
05-Jan-21 22:39 34.031871 -117.177229 206 12037ft 305kts
05-Jan-21 22:40 33.966365 -117.238470 231 11524ft 302kts
05-Jan-21 22:41 33.912977 -117.313374 232 11000ft 296kts
05-Jan-21 22:42 33.859459 -117.388954 231 10030ft 289kts
05-Jan-21 22:43 33.815645 -117.458069 249 8060ft 243kts
05-Jan-21 22:45 33.810355 -117.538281 271 7402ft 246kts
05-Jan-21 22:46 33.810633 -117.620559 271 6342ft 246kts
05-Jan-21 22:47 33.813839 -117.693491 281 4536ft 239kts
05-Jan-21 22:48 33.822086 -117.760351 253 3023ft 213kts
05-Jan-21 22:49 33.784721 -117.801059 204 2413ft 232kts
05-Jan-21 22:50 33.740517 -117.827723 207 1390ft 191kts
05-Jan-21 22:51 33.710057 -117.847023 207 708ft 120kts
05-Jan-21 22:52 33.683676 -117.863736 208 164ft 104kts
05-Jan-21 22:53 33.673108 -117.870669 210 59ft 19kts
05-Jan-21 22:54 33.673117 -117.871953 28 59ft 4kts
05-Jan-21 22:55 33.675209 -117.870836 313 59ft 7kts
05-Jan-21 22:56 33.675922 -117.870975 69 59ft 3kts
05-Jan-21 22:57 33.676333 -117.870659 316 59ft 1kts
05-Jan-21 22:58 33.676498 -117.871039 289 59ft 0kts
05-Jan-21 22:59 33.676498 -117.871039 289 59ft 0kts
05-Jan-21 23:00 33.676498 -117.871039 289 59ft 0kts
05-Jan-21 23:00 33.676498 -117.871039 289 59ft 0kts
05-Jan-21 23:02 33.676498 -117.871039 289 59ft 0kts
05-Jan-21 23:03 33.676498 -117.871039 289 59ft 0kts
05-Jan-21 23:03 33.676498 -117.871039 289 59ft 0kts
05-Jan-21 23:05 33.676498 -117.871039 289 59ft 0kts
05-Jan-21 23:06 33.676498 -117.871039 289 59ft 0kts
05-Jan-21 23:06 33.676498 -117.871039 289 59ft 0kts

Navigation Log

Ident Type
Flight plan parsing failed, navigation log unavailable